createdAt,value
2016-05-23T00:00:27.122Z,0
2016-05-23T00:01:27.265Z,0
2016-05-23T00:02:27.143Z,0
2016-05-23T00:03:27.255Z,0
2016-05-23T00:04:27.117Z,0
2016-05-23T00:05:27.120Z,0
2016-05-23T00:06:27.263Z,0
2016-05-23T00:07:27.109Z,0
2016-05-23T00:08:27.128Z,0
2016-05-23T00:09:27.272Z,0
2016-05-23T00:10:27.133Z,0
2016-05-23T00:11:27.120Z,0
2016-05-23T00:12:27.264Z,0
2016-05-23T00:13:27.282Z,0
2016-05-23T00:14:27.159Z,0
2016-05-23T00:15:27.287Z,0
2016-05-23T00:16:27.134Z,0
2016-05-23T00:17:27.277Z,0
2016-05-23T00:18:27.279Z,0
2016-05-23T00:19:27.299Z,0
2016-05-23T00:20:27.301Z,0
2016-05-23T00:21:27.132Z,0
2016-05-23T00:22:27.290Z,0
2016-05-23T00:23:27.138Z,0
2016-05-23T00:24:27.296Z,0
2016-05-23T00:25:27.126Z,0
2016-05-23T00:26:27.302Z,0
2016-05-23T00:27:27.334Z,0
2016-05-23T00:28:27.291Z,0
2016-05-23T00:29:27.465Z,0
2016-05-23T00:30:27.296Z,0
2016-05-23T00:31:27.315Z,0
2016-05-23T00:32:27.301Z,0
2016-05-23T00:33:27.320Z,0
2016-05-23T00:34:27.151Z,0
2016-05-23T00:35:27.325Z,0
2016-05-23T00:36:27.312Z,0
2016-05-23T00:37:27.315Z,0
2016-05-23T00:38:27.318Z,0
2016-05-23T00:39:27.305Z,0
2016-05-23T00:40:27.152Z,0
2016-05-23T00:41:27.310Z,0
2016-05-23T00:42:27.313Z,0
2016-05-23T00:43:27.316Z,0
2016-05-23T00:44:27.522Z,0
2016-05-23T00:45:27.336Z,0
2016-05-23T00:46:27.324Z,0
2016-05-23T00:47:27.327Z,0
2016-05-23T00:48:27.329Z,0
2016-05-23T00:49:27.316Z,0
2016-05-23T00:50:27.335Z,0
2016-05-23T00:51:27.338Z,0
2016-05-23T00:52:27.324Z,0
2016-05-23T00:53:27.342Z,0
2016-05-23T00:54:27.330Z,0
2016-05-23T00:55:27.176Z,0
2016-05-23T00:56:27.365Z,0
2016-05-23T00:57:27.338Z,0
2016-05-23T00:58:27.356Z,0
2016-05-23T00:59:27.890Z,0
2016-05-23T01:00:27.189Z,0
2016-05-23T01:01:27.349Z,0
2016-05-23T01:02:27.351Z,0
2016-05-23T01:03:27.353Z,0
2016-05-23T01:04:27.342Z,0
2016-05-23T01:05:27.344Z,0
2016-05-23T01:06:27.362Z,0
2016-05-23T01:07:27.349Z,0
2016-05-23T01:08:27.336Z,0
2016-05-23T01:09:27.355Z,0
2016-05-23T01:10:27.357Z,0
2016-05-23T01:11:27.360Z,0
2016-05-23T01:12:27.206Z,0
2016-05-23T01:13:27.350Z,0
2016-05-23T01:14:27.383Z,0
2016-05-23T01:15:27.371Z,0
2016-05-23T01:16:27.358Z,0
2016-05-23T01:17:27.360Z,0
2016-05-23T01:18:27.363Z,0
2016-05-23T01:19:27.210Z,0
2016-05-23T01:20:27.369Z,0
2016-05-23T01:21:27.355Z,0
2016-05-23T01:22:27.374Z,0
2016-05-23T01:23:27.220Z,0
2016-05-23T01:24:27.363Z,0
2016-05-23T01:25:27.366Z,0
2016-05-23T01:26:27.368Z,0
2016-05-23T01:27:27.372Z,0
2016-05-23T01:28:27.374Z,0
2016-05-23T01:29:27.579Z,0
2016-05-23T01:30:27.379Z,0
2016-05-23T01:31:27.382Z,0
2016-05-23T01:32:27.370Z,0
2016-05-23T01:33:27.387Z,0
2016-05-23T01:34:27.390Z,0
2016-05-23T01:35:27.378Z,0
2016-05-23T01:36:27.380Z,0
2016-05-23T01:37:27.226Z,0
2016-05-23T01:38:27.385Z,0
2016-05-23T01:39:27.373Z,0
2016-05-23T01:40:27.391Z,0
2016-05-23T01:41:27.394Z,0
2016-05-23T01:42:27.397Z,0
2016-05-23T01:43:27.383Z,0
2016-05-23T01:44:27.605Z,0
2016-05-23T01:45:27.248Z,0
2016-05-23T01:46:27.422Z,0
2016-05-23T01:47:27.394Z,0
2016-05-23T01:48:27.397Z,0
2016-05-23T01:49:27.399Z,0
2016-05-23T01:50:27.402Z,0
2016-05-23T01:51:27.405Z,0
2016-05-23T01:52:27.407Z,0
2016-05-23T01:53:27.410Z,0
2016-05-23T01:54:27.241Z,0
2016-05-23T01:55:27.416Z,0
2016-05-23T01:56:27.402Z,0
2016-05-23T01:57:27.265Z,0
2016-05-23T01:58:27.424Z,0
2016-05-23T01:59:27.473Z,0
2016-05-23T02:00:26.945Z,0
2016-05-23T02:01:27.415Z,0
2016-05-23T02:02:27.435Z,0
2016-05-23T02:03:27.406Z,0
2016-05-23T02:04:27.439Z,0
2016-05-23T02:05:27.427Z,0
2016-05-23T02:06:27.086Z,0
2016-05-23T02:07:27.416Z,0
2016-05-23T02:08:27.420Z,0
2016-05-23T02:09:27.423Z,0
2016-05-23T02:10:27.425Z,0
2016-05-23T02:11:27.256Z,0
2016-05-23T02:12:27.274Z,0
2016-05-23T02:13:27.260Z,0
2016-05-23T02:14:27.530Z,0
2016-05-23T02:15:27.422Z,0
2016-05-23T02:16:27.425Z,0
2016-05-23T02:17:27.427Z,0
2016-05-23T02:18:27.430Z,0
2016-05-23T02:19:27.277Z,0
2016-05-23T02:20:27.436Z,0
2016-05-23T02:21:27.455Z,0
2016-05-23T02:22:27.441Z,0
2016-05-23T02:23:27.132Z,0
2016-05-23T02:24:27.432Z,0
2016-05-23T02:25:27.137Z,0
2016-05-23T02:26:27.437Z,0
2016-05-23T02:27:27.283Z,0
2016-05-23T02:28:27.285Z,0
2016-05-23T02:29:27.585Z,0
2016-05-23T02:30:27.432Z,0
2016-05-23T02:31:27.450Z,0
2016-05-23T02:32:27.297Z,0
2016-05-23T02:33:27.299Z,0
2016-05-23T02:34:27.302Z,0
2016-05-23T02:35:27.461Z,0
2016-05-23T02:36:27.447Z,0
2016-05-23T02:37:27.451Z,0
2016-05-23T02:38:27.453Z,0
2016-05-23T02:39:27.456Z,0
2016-05-23T02:40:27.458Z,0
2016-05-23T02:41:27.446Z,0
2016-05-23T02:42:27.292Z,0
2016-05-23T02:43:27.483Z,0
2016-05-23T02:44:27.906Z,0
2016-05-23T02:45:27.456Z,0
2016-05-23T02:46:27.459Z,0
2016-05-23T02:47:27.477Z,0
2016-05-23T02:48:27.308Z,0
2016-05-23T02:49:27.467Z,0
2016-05-23T02:50:27.455Z,0
2016-05-23T02:51:27.300Z,0
2016-05-23T02:52:27.460Z,0
2016-05-23T02:53:27.305Z,0
2016-05-23T02:54:27.465Z,0
2016-05-23T02:55:27.468Z,0
2016-05-23T02:56:27.314Z,0
2016-05-23T02:57:27.474Z,0
2016-05-23T02:58:27.476Z,0
2016-05-23T02:59:27.962Z,0
2016-05-23T03:00:27.481Z,0
2016-05-23T03:01:27.468Z,0
2016-05-23T03:02:27.315Z,0
2016-05-23T03:03:27.489Z,0
2016-05-23T03:04:27.476Z,0
2016-05-23T03:05:27.478Z,0
2016-05-23T03:06:27.481Z,0
2016-05-23T03:07:27.312Z,0
2016-05-23T03:08:27.487Z,0
2016-05-23T03:09:27.317Z,0
2016-05-23T03:10:27.476Z,0
2016-05-23T03:11:27.479Z,0
2016-05-23T03:12:27.498Z,0
2016-05-23T03:13:27.328Z,0
2016-05-23T03:14:27.191Z,0
2016-05-23T03:15:27.490Z,0
2016-05-23T03:16:27.493Z,0
2016-05-23T03:17:27.339Z,0
2016-05-23T03:18:27.497Z,0
2016-05-23T03:19:27.501Z,0
2016-05-23T03:20:27.488Z,0
2016-05-23T03:21:27.194Z,0
2016-05-23T03:22:27.494Z,0
2016-05-23T03:23:27.496Z,0
2016-05-23T03:24:27.343Z,0
2016-05-23T03:25:27.502Z,0
2016-05-23T03:26:27.489Z,0
2016-05-23T03:27:27.366Z,0
2016-05-23T03:28:27.493Z,0
2016-05-23T03:29:27.637Z,0
2016-05-23T03:30:27.499Z,0
2016-05-23T03:31:27.502Z,0
2016-05-23T03:32:27.348Z,4
2016-05-23T03:33:27.507Z,4
2016-05-23T03:34:27.509Z,4
2016-05-23T03:35:27.185Z,4
2016-05-23T03:36:27.531Z,4
2016-05-23T03:37:27.534Z,4
2016-05-23T03:38:27.505Z,4
2016-05-23T03:39:27.523Z,4
2016-05-23T03:40:27.526Z,4
2016-05-23T03:41:27.514Z,4
2016-05-23T03:42:27.531Z,4
2016-05-23T03:43:27.519Z,4
2016-05-23T03:44:27.397Z,4
2016-05-23T03:45:27.352Z,4
2016-05-23T03:46:27.511Z,8
2016-05-23T03:47:27.513Z,4
2016-05-23T03:48:27.517Z,8
2016-05-23T03:49:27.519Z,8
2016-05-23T03:50:27.522Z,8
2016-05-23T03:51:27.525Z,12
2016-05-23T03:52:27.527Z,12
2016-05-23T03:53:27.374Z,12
2016-05-23T03:54:27.533Z,12
2016-05-23T03:55:27.536Z,12
2016-05-23T03:56:27.522Z,8
2016-05-23T03:57:27.525Z,12
2016-05-23T03:58:27.512Z,12
2016-05-23T03:59:27.812Z,12
2016-05-23T04:00:27.377Z,12
2016-05-23T04:01:27.379Z,16
2016-05-23T04:02:27.538Z,12
2016-05-23T04:03:27.541Z,12
2016-05-23T04:04:27.372Z,12
2016-05-23T04:05:27.531Z,16
2016-05-23T04:06:27.377Z,16
2016-05-23T04:07:27.380Z,20
2016-05-23T04:08:27.540Z,16
2016-05-23T04:09:27.542Z,16
2016-05-23T04:10:27.388Z,16
2016-05-23T04:11:27.531Z,20
2016-05-23T04:12:27.393Z,20
2016-05-23T04:13:27.225Z,20
2016-05-23T04:14:27.853Z,16
2016-05-23T04:15:27.386Z,20
2016-05-23T04:16:27.561Z,20
2016-05-23T04:17:27.532Z,20
2016-05-23T04:18:27.550Z,20
2016-05-23T04:19:27.537Z,20
2016-05-23T04:20:27.540Z,20
2016-05-23T04:21:27.542Z,20
2016-05-23T04:22:27.545Z,20
2016-05-23T04:23:27.564Z,20
2016-05-23T04:24:27.550Z,20
2016-05-23T04:25:27.553Z,20
2016-05-23T04:26:27.572Z,24
2016-05-23T04:27:27.559Z,24
2016-05-23T04:28:27.546Z,24
2016-05-23T04:29:28.299Z,28
2016-05-23T04:30:27.566Z,28
2016-05-23T04:31:27.554Z,28
2016-05-23T04:32:27.556Z,28
2016-05-23T04:33:27.574Z,28
2016-05-23T04:34:27.546Z,28
2016-05-23T04:35:27.565Z,28
2016-05-23T04:36:27.552Z,36
2016-05-23T04:37:27.554Z,40
2016-05-23T04:38:27.557Z,44
2016-05-23T04:39:27.560Z,44
2016-05-23T04:40:27.578Z,48
2016-05-23T04:41:27.581Z,44
2016-05-23T04:42:27.584Z,48
2016-05-23T04:43:27.571Z,56
2016-05-23T04:44:27.776Z,60
2016-05-23T04:45:27.576Z,60
2016-05-23T04:46:27.564Z,64
2016-05-23T04:47:27.253Z,72
2016-05-23T04:48:27.584Z,80
2016-05-23T04:49:27.572Z,88
2016-05-23T04:50:27.590Z,84
2016-05-23T04:51:27.578Z,84
2016-05-23T04:52:27.594Z,84
2016-05-23T04:53:27.567Z,80
2016-05-23T04:54:27.585Z,80
2016-05-23T04:55:27.572Z,88
2016-05-23T04:56:27.575Z,96
2016-05-23T04:57:27.578Z,104
2016-05-23T04:58:27.596Z,108
2016-05-23T04:59:27.848Z,116
2016-05-23T05:00:27.570Z,120
2016-05-23T05:01:27.572Z,120
2016-05-23T05:02:27.419Z,128
2016-05-23T05:03:27.437Z,136
2016-05-23T05:04:27.596Z,148
2016-05-23T05:05:27.583Z,156
2016-05-23T05:06:27.586Z,160
2016-05-23T05:07:27.588Z,164
2016-05-23T05:08:27.591Z,164
2016-05-23T05:09:27.594Z,164
2016-05-23T05:10:27.440Z,168
2016-05-23T05:11:27.599Z,164
2016-05-23T05:12:27.587Z,160
2016-05-23T05:13:27.432Z,148
2016-05-23T05:14:27.685Z,136
2016-05-23T05:15:27.453Z,116
2016-05-23T05:16:27.598Z,104
2016-05-23T05:17:27.584Z,96
2016-05-23T05:18:27.603Z,96
2016-05-23T05:19:27.605Z,100
2016-05-23T05:20:27.593Z,108
2016-05-23T05:21:27.611Z,116
2016-05-23T05:22:27.439Z,124
2016-05-23T05:23:27.285Z,132
2016-05-23T05:24:27.445Z,324
2016-05-23T05:25:27.431Z,316
2016-05-23T05:26:27.589Z,308
2016-05-23T05:27:27.593Z,316
2016-05-23T05:28:27.595Z,308
2016-05-23T05:29:27.786Z,336
2016-05-23T05:30:27.617Z,388
2016-05-23T05:31:27.603Z,404
2016-05-23T05:32:27.278Z,428
2016-05-23T05:33:27.608Z,368
2016-05-23T05:34:27.611Z,424
2016-05-23T05:35:27.443Z,440
2016-05-23T05:36:27.617Z,468
2016-05-23T05:37:27.604Z,396
2016-05-23T05:38:27.607Z,508
2016-05-23T05:39:27.610Z,496
2016-05-23T05:40:27.472Z,476
2016-05-23T05:41:27.599Z,488
2016-05-23T05:42:27.618Z,548
2016-05-23T05:43:27.621Z,576
2016-05-23T05:44:27.717Z,532
2016-05-23T05:45:27.595Z,604
2016-05-23T05:46:27.597Z,600
2016-05-23T05:47:27.600Z,520
2016-05-23T05:48:27.618Z,576
2016-05-23T05:49:27.620Z,568
2016-05-23T05:50:27.623Z,584
2016-05-23T05:51:27.611Z,588
2016-05-23T05:52:27.473Z,592
2016-05-23T05:53:27.616Z,680
2016-05-23T05:54:27.619Z,704
2016-05-23T05:55:27.622Z,696
2016-05-23T05:56:27.624Z,692
2016-05-23T05:57:27.611Z,672
2016-05-23T05:58:27.645Z,668
2016-05-23T05:59:27.476Z,640
2016-05-23T06:00:27.619Z,680
2016-05-23T06:01:28.106Z,688
2016-05-23T06:02:27.625Z,676
2016-05-23T06:03:27.628Z,748
2016-05-23T06:04:27.302Z,768
2016-05-23T06:05:27.633Z,736
2016-05-23T06:06:28.027Z,724
2016-05-23T06:07:27.638Z,692
2016-05-23T06:08:27.624Z,724
2016-05-23T06:09:27.627Z,768
2016-05-23T06:10:27.474Z,756
2016-05-23T06:11:27.618Z,748
2016-05-23T06:12:27.620Z,772
2016-05-23T06:13:27.638Z,804
2016-05-23T06:14:27.843Z,852
2016-05-23T06:15:27.629Z,876
2016-05-23T06:16:27.631Z,924
2016-05-23T06:17:27.477Z,852
2016-05-23T06:18:27.480Z,820
2016-05-23T06:19:27.640Z,716
2016-05-23T06:20:27.642Z,728
2016-05-23T06:21:28.270Z,612
2016-05-23T06:22:27.648Z,668
2016-05-23T06:23:27.493Z,764
2016-05-23T06:24:27.636Z,700
2016-05-23T06:25:27.577Z,616
2016-05-23T06:26:30.376Z,544
2016-05-23T06:27:27.645Z,588
2016-05-23T06:28:27.631Z,600
2016-05-23T06:29:27.666Z,600
2016-05-23T06:30:27.497Z,744
2016-05-23T06:31:29.656Z,1012
2016-05-23T06:32:27.642Z,1064
2016-05-23T06:33:27.645Z,1040
2016-05-23T06:34:27.648Z,1212
2016-05-23T06:35:27.495Z,1264
2016-05-23T06:36:27.638Z,1432
2016-05-23T06:37:27.672Z,1488
2016-05-23T06:38:27.644Z,1504
2016-05-23T06:39:27.647Z,1412
2016-05-23T06:40:28.804Z,1460
2016-05-23T06:41:27.652Z,1544
2016-05-23T06:42:27.654Z,1568
2016-05-23T06:43:27.485Z,1508
2016-05-23T06:45:29.240Z,1492
2016-05-23T06:46:27.649Z,1500
2016-05-23T06:47:27.652Z,1484
2016-05-23T06:48:27.671Z,1508
2016-05-23T06:49:27.683Z,1424
2016-05-23T06:50:27.571Z,1312
2016-05-23T06:51:30.302Z,1120
2016-05-23T06:52:27.767Z,1076
2016-05-23T06:53:27.639Z,1148
2016-05-23T06:54:27.791Z,1220
2016-05-23T06:55:27.818Z,1416
2016-05-23T06:56:28.065Z,1324
2016-05-23T06:57:27.671Z,1544
2016-05-23T06:58:27.839Z,1584
2016-05-23T06:59:28.235Z,1448
2016-05-23T07:00:27.709Z,1452
2016-05-23T07:01:27.841Z,1512
2016-05-23T07:02:27.877Z,1492
2016-05-23T07:03:27.868Z,1456
2016-05-23T07:04:27.840Z,1500
2016-05-23T07:05:30.079Z,1488
2016-05-23T07:06:27.722Z,1376
2016-05-23T07:07:27.711Z,1412
2016-05-23T07:08:27.715Z,1316
2016-05-23T07:09:27.874Z,1308
2016-05-23T07:10:28.408Z,1256
2016-05-23T07:11:29.662Z,1072
2016-05-23T07:12:27.883Z,1188
2016-05-23T07:13:27.870Z,1208
2016-05-23T07:14:27.874Z,1268
2016-05-23T07:15:27.721Z,1380
2016-05-23T07:16:30.489Z,1484
2016-05-23T07:17:27.961Z,1544
2016-05-23T07:18:27.730Z,1560
2016-05-23T07:19:27.716Z,1668
2016-05-23T07:20:27.891Z,1516
2016-05-23T07:21:29.910Z,1444
2016-05-23T07:22:27.866Z,1488
2016-05-23T07:23:27.869Z,1360
2016-05-23T07:24:27.715Z,1224
2016-05-23T07:25:27.874Z,1028
2016-05-23T07:26:29.829Z,1196
2016-05-23T07:27:27.707Z,1176
2016-05-23T07:28:27.725Z,1096
2016-05-23T07:29:28.087Z,1384
2016-05-23T07:30:27.871Z,1412
2016-05-23T07:31:29.046Z,1328
2016-05-23T07:32:27.892Z,1240
2016-05-23T07:33:27.879Z,1232
2016-05-23T07:34:27.881Z,1424
2016-05-23T07:35:27.573Z,1544
2016-05-23T07:36:27.731Z,1484
2016-05-23T07:37:27.734Z,1528
2016-05-23T07:38:27.878Z,1616
2016-05-23T07:39:27.725Z,1604
2016-05-23T07:40:27.727Z,1584
2016-05-23T07:41:27.730Z,1628
2016-05-23T07:42:27.903Z,1676
2016-05-23T07:43:27.891Z,1684
2016-05-23T07:44:28.205Z,1680
2016-05-23T07:45:27.725Z,1712
2016-05-23T07:46:27.883Z,1732
2016-05-23T07:47:27.885Z,1756
2016-05-23T07:48:27.888Z,1784
2016-05-23T07:49:27.719Z,1844
2016-05-23T07:50:27.893Z,1904
2016-05-23T07:51:28.116Z,1888
2016-05-23T07:52:27.884Z,1852
2016-05-23T07:53:27.902Z,1800
2016-05-23T07:54:27.748Z,1812
2016-05-23T07:55:27.735Z,1924
2016-05-23T07:56:27.910Z,2024
2016-05-23T07:57:27.898Z,2096
2016-05-23T07:58:27.743Z,2200
2016-05-23T07:59:28.653Z,2224
2016-05-23T08:00:27.748Z,2396
2016-05-23T08:01:29.924Z,2476
2016-05-23T08:02:27.895Z,2428
2016-05-23T08:03:27.914Z,2516
2016-05-23T08:04:27.900Z,2676
2016-05-23T08:05:27.590Z,2628
2016-05-23T08:06:27.750Z,2460
2016-05-23T08:07:27.768Z,2748
2016-05-23T08:08:27.911Z,2780
2016-05-23T08:09:27.758Z,2700
2016-05-23T08:10:27.917Z,2760
2016-05-23T08:11:27.764Z,2792
2016-05-23T08:12:27.906Z,3096
2016-05-23T08:13:27.753Z,3336
2016-05-23T08:14:27.647Z,3568
2016-05-23T08:15:27.914Z,3584
2016-05-23T08:16:30.385Z,3620
2016-05-23T08:17:27.904Z,3492
2016-05-23T08:18:27.922Z,3384
2016-05-23T08:19:27.910Z,3220
2016-05-23T08:20:27.928Z,3108
2016-05-23T08:21:27.915Z,2980
2016-05-23T08:22:27.933Z,3108
2016-05-23T08:23:27.920Z,2892
2016-05-23T08:24:27.923Z,2796
2016-05-23T08:25:27.768Z,2772
2016-05-23T08:26:27.772Z,2488
2016-05-23T08:27:27.946Z,2396
2016-05-23T08:28:27.762Z,2600
2016-05-23T08:29:27.764Z,2716
2016-05-23T08:30:27.923Z,2816
2016-05-23T08:31:27.926Z,2916
2016-05-23T08:32:27.945Z,3156
2016-05-23T08:33:27.931Z,3120
2016-05-23T08:34:27.778Z,3224
2016-05-23T08:35:27.921Z,3220
2016-05-23T08:36:28.674Z,3356
2016-05-23T08:37:27.786Z,3304
2016-05-23T08:38:27.773Z,3360
2016-05-23T08:39:27.620Z,3336
2016-05-23T08:40:27.919Z,3416
2016-05-23T08:41:28.219Z,3496
2016-05-23T08:42:27.783Z,3616
2016-05-23T08:43:27.927Z,3780
2016-05-23T08:44:27.945Z,3644
2016-05-23T08:45:27.792Z,3476
2016-05-23T08:46:27.623Z,3512
2016-05-23T08:47:27.938Z,2968
2016-05-23T08:48:27.941Z,3416
2016-05-23T08:49:27.944Z,3544
2016-05-23T08:50:27.930Z,3400
2016-05-23T08:51:27.792Z,3004
2016-05-23T08:52:27.951Z,3228
2016-05-23T08:53:27.954Z,3660
2016-05-23T08:54:27.941Z,3852
2016-05-23T08:55:27.944Z,4296
2016-05-23T08:56:27.947Z,4076
2016-05-23T08:57:27.949Z,4664
2016-05-23T08:58:27.952Z,4864
2016-05-23T08:59:27.985Z,5296
2016-05-23T09:00:27.957Z,4508
2016-05-23T09:01:27.804Z,5024
2016-05-23T09:02:27.978Z,5032
2016-05-23T09:03:27.793Z,5308
2016-05-23T09:04:27.953Z,5324
2016-05-23T09:05:27.956Z,4932
2016-05-23T09:06:27.958Z,5068
2016-05-23T09:07:27.820Z,5916
2016-05-23T09:08:27.964Z,6492
2016-05-23T09:09:27.981Z,5448
2016-05-23T09:10:27.969Z,4240
2016-05-23T09:11:27.814Z,4508
2016-05-23T09:12:27.974Z,4544
2016-05-23T09:13:27.805Z,3656
2016-05-23T09:14:27.980Z,3956
2016-05-23T09:15:27.983Z,4756
2016-05-23T09:16:27.672Z,4124
2016-05-23T09:17:27.972Z,3664
2016-05-23T09:18:27.975Z,3580
2016-05-23T09:19:27.978Z,2880
2016-05-23T09:20:27.996Z,2832
2016-05-23T09:21:27.983Z,2908
2016-05-23T09:22:27.829Z,3660
2016-05-23T09:23:27.832Z,2988
2016-05-23T09:24:27.990Z,2964
2016-05-23T09:25:27.993Z,3080
2016-05-23T09:26:27.980Z,2516
2016-05-23T09:27:28.015Z,2944
2016-05-23T09:28:27.985Z,3012
2016-05-23T09:29:28.441Z,2880
2016-05-23T09:30:27.851Z,3108
2016-05-23T09:31:27.993Z,3232
2016-05-23T09:32:27.996Z,2580
2016-05-23T09:33:27.999Z,2428
2016-05-23T09:34:27.845Z,2476
2016-05-23T09:35:28.004Z,2400
2016-05-23T09:36:27.695Z,2536
2016-05-23T09:37:28.009Z,2428
2016-05-23T09:38:28.012Z,2732
2016-05-23T09:39:28.015Z,2676
2016-05-23T09:40:28.017Z,2500
2016-05-23T09:41:28.005Z,2328
2016-05-23T09:42:28.008Z,2184
2016-05-23T09:43:28.011Z,2384
2016-05-23T09:44:28.420Z,2316
2016-05-23T09:45:27.859Z,2332
2016-05-23T09:46:28.019Z,2188
2016-05-23T09:47:28.849Z,2064
2016-05-23T09:48:28.025Z,2240
2016-05-23T09:49:27.870Z,2308
2016-05-23T09:50:28.060Z,2368
2016-05-23T09:51:27.860Z,2396
2016-05-23T09:52:29.113Z,2696
2016-05-23T09:53:28.022Z,2752
2016-05-23T09:54:28.024Z,2896
2016-05-23T09:55:28.011Z,3124
2016-05-23T09:56:28.030Z,3104
2016-05-23T09:57:29.048Z,2744
2016-05-23T09:58:28.019Z,3228
2016-05-23T09:59:29.507Z,3248
2016-05-23T10:00:27.869Z,3008
2016-05-23T10:01:28.027Z,2968
2016-05-23T10:02:29.249Z,2916
2016-05-23T10:03:28.033Z,2756
2016-05-23T10:04:28.036Z,3000
2016-05-23T10:05:27.898Z,3132
2016-05-23T10:06:28.057Z,3276
2016-05-23T10:07:28.043Z,3576
2016-05-23T10:08:28.046Z,3668
2016-05-23T10:09:27.892Z,3760
2016-05-23T10:10:28.036Z,3808
2016-05-23T10:11:27.883Z,3828
2016-05-23T10:12:28.042Z,3348
2016-05-23T10:13:28.059Z,3400
2016-05-23T10:14:27.937Z,3376
2016-05-23T10:15:28.050Z,3368
2016-05-23T10:16:28.053Z,2884
2016-05-23T10:17:28.055Z,2672
2016-05-23T10:18:28.041Z,2972
2016-05-23T10:19:28.061Z,2612
2016-05-23T10:20:27.750Z,2532
2016-05-23T10:21:27.910Z,2564
2016-05-23T10:22:28.068Z,3200
2016-05-23T10:23:28.102Z,3056
2016-05-23T10:24:28.058Z,2868
2016-05-23T10:25:28.061Z,3212
2016-05-23T10:26:27.923Z,3184
2016-05-23T10:27:28.097Z,3360
2016-05-23T10:28:28.069Z,2872
2016-05-23T10:29:28.432Z,3392
2016-05-23T10:30:28.090Z,3136
2016-05-23T10:31:28.077Z,2888
2016-05-23T10:32:28.080Z,3160
2016-05-23T10:33:28.083Z,3228
2016-05-23T10:34:28.084Z,3380
2016-05-23T10:35:28.087Z,2960
2016-05-23T10:36:28.075Z,3184
2016-05-23T10:37:27.765Z,2972
2016-05-23T10:38:28.080Z,2932
2016-05-23T10:39:28.083Z,2804
2016-05-23T10:40:28.086Z,3096
2016-05-23T10:41:28.089Z,3076
2016-05-23T10:42:28.106Z,2944
2016-05-23T10:43:28.094Z,3040
2016-05-23T10:44:28.580Z,2552
2016-05-23T10:45:27.942Z,3012
2016-05-23T10:46:28.086Z,3124
2016-05-23T10:47:28.105Z,3348
2016-05-23T10:48:27.935Z,3468
2016-05-23T10:49:27.938Z,2964
2016-05-23T10:50:28.097Z,2316
2016-05-23T10:51:28.303Z,2188
2016-05-23T10:52:27.946Z,2196
2016-05-23T10:53:28.105Z,2580
2016-05-23T10:54:28.124Z,2572
2016-05-23T10:55:28.111Z,2820
2016-05-23T10:56:28.113Z,2724
2016-05-23T10:57:28.099Z,2692
2016-05-23T10:58:27.993Z,2500
2016-05-23T10:59:27.980Z,2360
2016-05-23T11:00:28.108Z,2448
2016-05-23T11:01:27.985Z,2248
2016-05-23T11:02:27.801Z,2116
2016-05-23T11:03:28.116Z,2168
2016-05-23T11:04:28.119Z,2000
2016-05-23T11:05:28.106Z,2008
2016-05-23T11:06:28.124Z,1892
2016-05-23T11:07:28.112Z,2100
2016-05-23T11:08:28.115Z,1860
2016-05-23T11:09:27.960Z,1768
2016-05-23T11:10:28.120Z,1904
2016-05-23T11:11:28.122Z,1788
2016-05-23T11:12:28.125Z,1792
2016-05-23T11:13:28.128Z,2208
2016-05-23T11:14:28.848Z,1960
2016-05-23T11:15:27.820Z,1836
2016-05-23T11:16:28.136Z,1724
2016-05-23T11:17:28.139Z,1780
2016-05-23T11:18:28.142Z,1620
2016-05-23T11:19:27.987Z,1472
2016-05-23T11:20:28.006Z,1684
2016-05-23T11:21:27.992Z,1788
2016-05-23T11:22:27.980Z,1792
2016-05-23T11:23:28.123Z,1832
2016-05-23T11:24:28.141Z,2116
2016-05-23T11:25:28.144Z,2176
2016-05-23T11:26:28.147Z,2036
2016-05-23T11:27:27.978Z,1956
2016-05-23T11:28:28.136Z,2124
2016-05-23T11:29:28.452Z,2112
2016-05-23T11:30:28.002Z,2444
2016-05-23T11:31:28.144Z,2852
2016-05-23T11:32:28.147Z,3172
2016-05-23T11:33:28.166Z,3228
2016-05-23T11:34:28.153Z,3184
2016-05-23T11:35:27.999Z,2856
2016-05-23T11:36:28.158Z,3008
2016-05-23T11:37:28.161Z,3120
2016-05-23T11:38:27.851Z,3780
2016-05-23T11:39:28.151Z,4016
2016-05-23T11:40:28.168Z,3928
2016-05-23T11:41:28.187Z,3452
2016-05-23T11:42:28.159Z,3296
2016-05-23T11:43:28.176Z,3684
2016-05-23T11:44:28.086Z,3588
2016-05-23T11:45:28.182Z,3812
2016-05-23T11:46:28.153Z,4588
2016-05-23T11:47:28.016Z,4652
2016-05-23T11:48:28.159Z,4116
2016-05-23T11:49:28.177Z,4128
2016-05-23T11:50:28.024Z,4300
2016-05-23T11:51:28.027Z,3980
2016-05-23T11:52:28.170Z,4252
2016-05-23T11:53:28.017Z,4376
2016-05-23T11:54:28.019Z,3836
2016-05-23T11:55:28.022Z,3600
2016-05-23T11:56:28.024Z,3860
2016-05-23T11:57:28.043Z,4260
2016-05-23T11:58:28.217Z,3640
2016-05-23T11:59:28.924Z,4140
2016-05-23T12:00:28.177Z,5232
2016-05-23T12:01:28.021Z,4216
2016-05-23T12:02:28.040Z,4200
2016-05-23T12:03:28.184Z,3908
2016-05-23T12:04:28.187Z,5104
2016-05-23T12:05:28.205Z,5016
2016-05-23T12:06:28.052Z,4948
2016-05-23T12:07:28.195Z,5444
2016-05-23T12:08:28.198Z,5288
2016-05-23T12:09:28.201Z,4972
2016-05-23T12:10:28.047Z,5940
2016-05-23T12:11:28.206Z,7824
2016-05-23T12:12:28.192Z,6860
2016-05-23T12:13:28.195Z,6216
2016-05-23T12:14:28.385Z,5232
2016-05-23T12:15:28.185Z,4556
2016-05-23T12:16:28.187Z,4832
2016-05-23T12:17:28.206Z,4096
2016-05-23T12:18:28.208Z,3196
2016-05-23T12:19:28.211Z,3740
2016-05-23T12:20:28.058Z,3900
2016-05-23T12:21:28.217Z,3120
2016-05-23T12:22:28.220Z,3856
2016-05-23T12:23:28.238Z,4340
2016-05-23T12:24:28.225Z,3732
2016-05-23T12:25:28.086Z,3284
2016-05-23T12:26:28.230Z,2420
2016-05-23T12:27:28.217Z,2136
2016-05-23T12:28:28.220Z,2684
2016-05-23T12:29:28.660Z,2996
2016-05-23T12:30:28.241Z,2888
2016-05-23T12:31:28.072Z,3044
2016-05-23T12:32:28.230Z,2884
2016-05-23T12:33:28.233Z,3192
2016-05-23T12:34:28.235Z,3180
2016-05-23T12:35:28.238Z,3144
2016-05-23T12:36:28.163Z,3232
2016-05-23T12:37:28.244Z,3248
2016-05-23T12:38:28.325Z,3632
2016-05-23T12:39:28.234Z,3644
2016-05-23T12:40:28.095Z,3604
2016-05-23T12:41:28.082Z,3268
2016-05-23T12:42:28.257Z,3172
2016-05-23T12:43:28.120Z,2472
2016-05-23T12:44:28.248Z,2600
2016-05-23T12:45:28.250Z,2608
2016-05-23T12:46:28.393Z,2620
2016-05-23T12:47:28.256Z,2252
2016-05-23T12:48:28.259Z,2088
2016-05-23T12:49:28.479Z,2192
2016-05-23T12:50:28.278Z,2268
2016-05-23T12:51:28.267Z,2364
2016-05-23T12:52:28.269Z,2140
2016-05-23T12:53:30.397Z,2008
2016-05-23T12:54:28.259Z,2128
2016-05-23T12:55:28.261Z,1824
2016-05-23T12:56:28.263Z,1868
2016-05-23T12:57:28.266Z,1796
2016-05-23T12:58:28.269Z,1512
2016-05-23T12:59:28.272Z,1696
2016-05-23T13:00:28.258Z,2024
2016-05-23T13:01:28.121Z,1716
2016-05-23T13:02:28.124Z,1564
2016-05-23T13:03:28.267Z,1524
2016-05-23T13:04:28.269Z,1920
2016-05-23T13:05:28.272Z,1776
2016-05-23T13:06:28.291Z,1760
2016-05-23T13:07:28.277Z,1680
2016-05-23T13:08:28.280Z,1508
2016-05-23T13:09:28.315Z,1388
2016-05-23T13:10:28.286Z,1484
2016-05-23T13:11:28.288Z,1780
2016-05-23T13:12:28.291Z,1948
2016-05-23T13:13:28.293Z,1960
2016-05-23T13:14:28.140Z,1868
2016-05-23T13:15:28.158Z,1868
2016-05-23T13:16:28.146Z,1992
2016-05-23T13:17:28.133Z,1888
2016-05-23T13:18:28.307Z,1892
2016-05-23T13:19:28.357Z,1936
2016-05-23T13:20:28.156Z,2180
2016-05-23T13:21:28.300Z,2280
2016-05-23T13:22:28.178Z,2076
2016-05-23T13:23:28.305Z,2284
2016-05-23T13:24:28.308Z,2180
2016-05-23T13:25:28.358Z,2196
2016-05-23T13:26:28.329Z,2080
2016-05-23T13:27:28.300Z,2540
2016-05-23T13:28:28.303Z,2492
2016-05-23T13:29:28.337Z,2336
2016-05-23T13:30:28.308Z,2272
2016-05-23T13:31:28.155Z,2656
2016-05-23T13:32:28.298Z,2788
2016-05-23T13:33:28.302Z,2388
2016-05-23T13:34:28.163Z,2652
2016-05-23T13:35:28.337Z,2496
2016-05-23T13:36:28.310Z,2928
2016-05-23T13:37:28.327Z,2864
2016-05-23T13:38:28.329Z,3016
2016-05-23T13:39:28.318Z,2352
2016-05-23T13:40:28.335Z,2628
2016-05-23T13:41:28.338Z,1980
2016-05-23T13:42:28.326Z,2496
2016-05-23T13:43:28.313Z,2368
2016-05-23T13:44:29.064Z,2808
2016-05-23T13:45:28.084Z,3088
2016-05-23T13:46:28.195Z,2704
2016-05-23T13:47:28.182Z,2844
2016-05-23T13:48:28.184Z,2796
2016-05-23T13:49:28.359Z,2708
2016-05-23T13:50:28.347Z,2824